sensor_id;sensor_type;location;lat;lon;timestamp;pressure;altitude;pressure_sealevel;temperature;humidity
15477;BME280;7840;42.702;23.296;2023-02-18T00:02:09;95847.53;;;3.77;81.44
15477;BME280;7840;42.702;23.296;2023-02-18T00:04:41;95839.78;;;3.18;84.80
15477;BME280;7840;42.702;23.296;2023-02-18T00:07:21;95838.34;;;3.31;85.94
15477;BME280;7840;42.702;23.296;2023-02-18T00:09:50;95842.00;;;3.36;85.42
15477;BME280;7840;42.702;23.296;2023-02-18T00:12:20;95822.59;;;3.45;84.57
15477;BME280;7840;42.702;23.296;2023-02-18T00:14:48;95832.50;;;3.50;84.93
15477;BME280;7840;42.702;23.296;2023-02-18T00:17:32;95833.44;;;3.57;84.07
15477;BME280;7840;42.702;23.296;2023-02-18T00:20:17;95818.94;;;3.61;82.96
15477;BME280;7840;42.702;23.296;2023-02-18T00:22:53;95815.72;;;3.59;83.21
15477;BME280;7840;42.702;23.296;2023-02-18T00:25:22;95810.28;;;3.61;82.61
15477;BME280;7840;42.702;23.296;2023-02-18T00:27:53;95800.81;;;3.60;82.72
15477;BME280;7840;42.702;23.296;2023-02-18T00:30:21;95803.22;;;3.61;82.36
15477;BME280;7840;42.702;23.296;2023-02-18T00:32:52;95798.00;;;3.61;82.95
15477;BME280;7840;42.702;23.296;2023-02-18T00:35:23;95794.22;;;3.49;82.85
15477;BME280;7840;42.702;23.296;2023-02-18T00:37:51;95799.72;;;3.54;83.96
15477;BME280;7840;42.702;23.296;2023-02-18T00:40:21;95798.66;;;3.48;84.46
15477;BME280;7840;42.702;23.296;2023-02-18T00:42:48;95790.59;;;3.50;84.33
15477;BME280;7840;42.702;23.296;2023-02-18T00:45:16;95798.66;;;3.48;84.12
15477;BME280;7840;42.702;23.296;2023-02-18T00:47:43;95785.13;;;3.45;84.44
15477;BME280;7840;42.702;23.296;2023-02-18T00:50:11;95784.88;;;3.40;85.08
15477;BME280;7840;42.702;23.296;2023-02-18T00:52:38;95791.38;;;3.44;84.87
15477;BME280;7840;42.702;23.296;2023-02-18T00:55:06;95784.47;;;3.43;85.23
15477;BME280;7840;42.702;23.296;2023-02-18T00:57:35;95787.94;;;3.28;86.26
15477;BME280;7840;42.702;23.296;2023-02-18T01:00:04;95793.00;;;3.15;87.09
15477;BME280;7840;42.702;23.296;2023-02-18T01:02:32;95789.16;;;2.67;91.37
15477;BME280;7840;42.702;23.296;2023-02-18T01:05:00;95788.84;;;2.47;94.04
15477;BME280;7840;42.702;23.296;2023-02-18T01:07:28;95782.91;;;2.53;94.66
15477;BME280;7840;42.702;23.296;2023-02-18T01:09:59;95783.38;;;2.57;95.39
15477;BME280;7840;42.702;23.296;2023-02-18T01:12:26;95795.56;;;2.64;94.35
15477;BME280;7840;42.702;23.296;2023-02-18T01:18:02;95780.16;;;2.69;92.83
15477;BME280;7840;42.702;23.296;2023-02-18T01:20:31;95787.28;;;2.76;93.66
15477;BME280;7840;42.702;23.296;2023-02-18T01:23:01;95791.03;;;2.88;91.31
15477;BME280;7840;42.702;23.296;2023-02-18T01:25:32;95788.72;;;2.93;90.12
15477;BME280;7840;42.702;23.296;2023-02-18T01:28:12;95783.56;;;2.85;89.90
15477;BME280;7840;42.702;23.296;2023-02-18T01:30:42;95774.72;;;2.86;91.58
15477;BME280;7840;42.702;23.296;2023-02-18T01:33:10;95777.25;;;2.94;90.75
15477;BME280;7840;42.702;23.296;2023-02-18T01:35:39;95773.00;;;2.93;90.83
15477;BME280;7840;42.702;23.296;2023-02-18T01:38:07;95784.03;;;2.88;89.60
15477;BME280;7840;42.702;23.296;2023-02-18T01:40:42;95777.53;;;2.84;90.03
15477;BME280;7840;42.702;23.296;2023-02-18T01:43:12;95781.47;;;2.95;89.30
15477;BME280;7840;42.702;23.296;2023-02-18T01:46:00;95790.22;;;2.58;90.92
15477;BME280;7840;42.702;23.296;2023-02-18T01:48:37;95796.69;;;2.47;93.82
15477;BME280;7840;42.702;23.296;2023-02-18T01:51:24;95791.13;;;2.65;91.60
15477;BME280;7840;42.702;23.296;2023-02-18T01:54:04;95798.16;;;2.50;92.90
15477;BME280;7840;42.702;23.296;2023-02-18T01:56:36;95798.41;;;2.40;93.94
15477;BME280;7840;42.702;23.296;2023-02-18T01:59:10;95790.75;;;2.53;93.58
15477;BME280;7840;42.702;23.296;2023-02-18T02:01:45;95796.28;;;2.58;92.87
15477;BME280;7840;42.702;23.296;2023-02-18T02:04:13;95798.81;;;2.66;93.04
15477;BME280;7840;42.702;23.296;2023-02-18T02:06:41;95792.84;;;2.72;92.04
15477;BME280;7840;42.702;23.296;2023-02-18T02:09:12;95782.94;;;2.68;93.25
15477;BME280;7840;42.702;23.296;2023-02-18T02:11:58;95781.84;;;2.62;93.33
15477;BME280;7840;42.702;23.296;2023-02-18T02:14:44;95777.16;;;2.72;93.77
15477;BME280;7840;42.702;23.296;2023-02-18T02:17:24;95785.56;;;2.68;93.13
15477;BME280;7840;42.702;23.296;2023-02-18T02:20:24;95790.34;;;2.64;93.77
15477;BME280;7840;42.702;23.296;2023-02-18T02:23:49;95786.72;;;2.65;94.09
15477;BME280;7840;42.702;23.296;2023-02-18T02:29:57;95780.56;;;2.29;97.12
15477;BME280;7840;42.702;23.296;2023-02-18T02:35:45;95780.75;;;2.42;95.69
15477;BME280;7840;42.702;23.296;2023-02-18T02:38:20;95783.78;;;2.31;96.61
15477;BME280;7840;42.702;23.296;2023-02-18T02:40:56;95763.69;;;2.31;97.83
15477;BME280;7840;42.702;23.296;2023-02-18T02:43:33;95757.94;;;2.36;97.41
15477;BME280;7840;42.702;23.296;2023-02-18T02:46:11;95757.56;;;2.39;98.45
15477;BME280;7840;42.702;23.296;2023-02-18T02:48:47;95751.63;;;2.30;97.75
15477;BME280;7840;42.702;23.296;2023-02-18T02:51:24;95765.22;;;2.26;98.73
15477;BME280;7840;42.702;23.296;2023-02-18T02:54:10;95759.81;;;1.89;100.00
15477;BME280;7840;42.702;23.296;2023-02-18T02:56:40;95778.84;;;1.98;100.00
15477;BME280;7840;42.702;23.296;2023-02-18T02:59:43;95780.47;;;1.99;100.00
15477;BME280;7840;42.702;23.296;2023-02-18T03:02:23;95787.81;;;1.58;100.00
15477;BME280;7840;42.702;23.296;2023-02-18T03:05:10;95781.75;;;1.80;100.00
15477;BME280;7840;42.702;23.296;2023-02-18T03:08:07;95781.19;;;1.93;100.00
15477;BME280;7840;42.702;23.296;2023-02-18T03:10:45;95781.56;;;2.05;100.00
15477;BME280;7840;42.702;23.296;2023-02-18T03:13:29;95770.84;;;2.00;100.00
15477;BME280;7840;42.702;23.296;2023-02-18T03:16:25;95765.44;;;2.01;100.00
15477;BME280;7840;42.702;23.296;2023-02-18T03:19:06;95776.09;;;2.14;100.00
15477;BME280;7840;42.702;23.296;2023-02-18T03:21:40;95792.31;;;1.87;100.00
15477;BME280;7840;42.702;23.296;2023-02-18T03:24:15;95804.97;;;1.75;100.00
15477;BME280;7840;42.702;23.296;2023-02-18T03:26:49;95801.16;;;1.86;100.00
15477;BME280;7840;42.702;23.296;2023-02-18T03:29:26;95805.94;;;1.97;100.00
15477;BME280;7840;42.702;23.296;2023-02-18T03:32:24;95813.09;;;2.03;100.00
15477;BME280;7840;42.702;23.296;2023-02-18T03:34:57;95820.41;;;2.08;100.00
15477;BME280;7840;42.702;23.296;2023-02-18T03:37:51;95822.28;;;1.99;100.00
15477;BME280;7840;42.702;23.296;2023-02-18T03:40:21;95825.44;;;1.63;100.00
15477;BME280;7840;42.702;23.296;2023-02-18T03:42:48;95824.00;;;1.84;100.00
15477;BME280;7840;42.702;23.296;2023-02-18T03:45:16;95820.19;;;1.95;100.00
15477;BME280;7840;42.702;23.296;2023-02-18T03:47:46;95819.81;;;1.75;100.00
15477;BME280;7840;42.702;23.296;2023-02-18T03:50:19;95827.59;;;1.83;100.00
15477;BME280;7840;42.702;23.296;2023-02-18T03:52:58;95824.94;;;1.91;100.00
15477;BME280;7840;42.702;23.296;2023-02-18T03:55:26;95836.59;;;2.03;100.00
15477;BME280;7840;42.702;23.296;2023-02-18T03:58:02;95830.56;;;2.03;100.00
15477;BME280;7840;42.702;23.296;2023-02-18T04:00:30;95824.72;;;2.01;100.00
15477;BME280;7840;42.702;23.296;2023-02-18T04:03:03;95821.81;;;1.96;100.00
15477;BME280;7840;42.702;23.296;2023-02-18T04:05:48;95818.09;;;1.90;100.00
15477;BME280;7840;42.702;23.296;2023-02-18T04:08:16;95819.00;;;1.97;100.00
15477;BME280;7840;42.702;23.296;2023-02-18T04:10:44;95813.09;;;2.03;100.00
15477;BME280;7840;42.702;23.296;2023-02-18T04:13:11;95809.31;;;2.06;100.00
15477;BME280;7840;42.702;23.296;2023-02-18T04:15:40;95816.28;;;2.13;100.00
15477;BME280;7840;42.702;23.296;2023-02-18T04:18:10;95806.66;;;2.14;100.00
15477;BME280;7840;42.702;23.296;2023-02-18T04:20:44;95793.75;;;2.12;100.00
15477;BME280;7840;42.702;23.296;2023-02-18T04:23:12;95793.22;;;2.17;100.00
15477;BME280;7840;42.702;23.296;2023-02-18T04:25:56;95788.47;;;2.21;100.00
15477;BME280;7840;42.702;23.296;2023-02-18T04:28:32;95793.63;;;2.29;100.00
15477;BME280;7840;42.702;23.296;2023-02-18T04:31:07;95793.00;;;2.27;100.00
15477;BME280;7840;42.702;23.296;2023-02-18T04:33:39;95789.66;;;1.95;100.00
15477;BME280;7840;42.702;23.296;2023-02-18T04:36:21;95799.63;;;1.69;100.00
15477;BME280;7840;42.702;23.296;2023-02-18T04:38:49;95792.53;;;1.54;100.00
15477;BME280;7840;42.702;23.296;2023-02-18T04:41:16;95794.88;;;1.72;100.00
15477;BME280;7840;42.702;23.296;2023-02-18T04:43:57;95791.34;;;1.88;100.00
15477;BME280;7840;42.702;23.296;2023-02-18T04:46:25;95796.19;;;1.91;100.00
15477;BME280;7840;42.702;23.296;2023-02-18T04:49:04;95799.03;;;2.04;100.00
15477;BME280;7840;42.702;23.296;2023-02-18T04:51:32;95803.94;;;2.07;100.00
15477;BME280;7840;42.702;23.296;2023-02-18T04:54:00;95810.41;;;2.11;100.00
15477;BME280;7840;42.702;23.296;2023-02-18T04:56:27;95804.97;;;1.98;100.00
15477;BME280;7840;42.702;23.296;2023-02-18T04:58:55;95814.00;;;2.10;100.00
15477;BME280;7840;42.702;23.296;2023-02-18T05:01:23;95819.34;;;2.17;100.00
15477;BME280;7840;42.702;23.296;2023-02-18T05:04:24;95832.34;;;2.25;100.00
15477;BME280;7840;42.702;23.296;2023-02-18T05:06:51;95826.31;;;2.25;100.00
15477;BME280;7840;42.702;23.296;2023-02-18T05:09:19;95821.44;;;2.22;100.00
15477;BME280;7840;42.702;23.296;2023-02-18T05:11:50;95815.41;;;2.21;100.00
15477;BME280;7840;42.702;23.296;2023-02-18T05:14:20;95815.53;;;2.28;100.00
15477;BME280;7840;42.702;23.296;2023-02-18T05:16:50;95816.44;;;2.35;100.00
15477;BME280;7840;42.702;23.296;2023-02-18T05:19:33;95805.97;;;2.35;100.00
15477;BME280;7840;42.702;23.296;2023-02-18T05:22:17;95802.00;;;2.39;100.00
15477;BME280;7840;42.702;23.296;2023-02-18T05:24:46;95803.44;;;2.27;100.00
15477;BME280;7840;42.702;23.296;2023-02-18T05:27:14;95809.72;;;2.17;100.00
15477;BME280;7840;42.702;23.296;2023-02-18T05:29:45;95813.25;;;2.25;100.00
15477;BME280;7840;42.702;23.296;2023-02-18T05:32:16;95803.44;;;2.27;100.00
15477;BME280;7840;42.702;23.296;2023-02-18T05:34:46;95804.19;;;2.35;100.00
15477;BME280;7840;42.702;23.296;2023-02-18T05:37:27;95804.47;;;2.40;100.00
15477;BME280;7840;42.702;23.296;2023-02-18T05:39:55;95799.88;;;2.57;100.00
15477;BME280;7840;42.702;23.296;2023-02-18T05:42:22;95798.09;;;2.72;100.00
15477;BME280;7840;42.702;23.296;2023-02-18T05:44:50;95802.69;;;2.85;100.00
15477;BME280;7840;42.702;23.296;2023-02-18T05:47:17;95809.72;;;2.85;100.00
15477;BME280;7840;42.702;23.296;2023-02-18T05:49:48;95816.84;;;2.61;100.00
15477;BME280;7840;42.702;23.296;2023-02-18T05:52:24;95824.06;;;2.74;100.00
15477;BME280;7840;42.702;23.296;2023-02-18T05:55:00;95826.19;;;2.41;100.00
15477;BME280;7840;42.702;23.296;2023-02-18T05:57:34;95829.19;;;2.67;100.00
15477;BME280;7840;42.702;23.296;2023-02-18T06:00:21;95826.56;;;2.53;100.00
15477;BME280;7840;42.702;23.296;2023-02-18T06:02:49;95827.31;;;2.76;100.00
15477;BME280;7840;42.702;23.296;2023-02-18T06:05:19;95830.66;;;2.99;100.00
15477;BME280;7840;42.702;23.296;2023-02-18T06:07:47;95828.03;;;3.14;100.00
15477;BME280;7840;42.702;23.296;2023-02-18T06:10:15;95814.50;;;3.25;97.93
15477;BME280;7840;42.702;23.296;2023-02-18T06:12:43;95829.50;;;3.32;95.75
15477;BME280;7840;42.702;23.296;2023-02-18T06:15:11;95819.16;;;3.45;95.32
15477;BME280;7840;42.702;23.296;2023-02-18T06:17:38;95823.03;;;3.49;95.56
15477;BME280;7840;42.702;23.296;2023-02-18T06:20:07;95823.69;;;3.51;95.64
15477;BME280;7840;42.702;23.296;2023-02-18T06:22:39;95818.38;;;3.44;96.45
15477;BME280;7840;42.702;23.296;2023-02-18T06:25:07;95817.72;;;3.57;95.72
15477;BME280;7840;42.702;23.296;2023-02-18T06:27:34;95801.41;;;3.62;95.08
15477;BME280;7840;42.702;23.296;2023-02-18T06:32:48;95804.72;;;3.85;92.50
15477;BME280;7840;42.702;23.296;2023-02-18T06:35:25;95802.31;;;3.90;89.88
15477;BME280;7840;42.702;23.296;2023-02-18T06:38:04;95809.06;;;3.99;88.38
15477;BME280;7840;42.702;23.296;2023-02-18T06:40:33;95805.38;;;4.15;87.76
15477;BME280;7840;42.702;23.296;2023-02-18T06:45:44;95816.88;;;3.93;90.62
15477;BME280;7840;42.702;23.296;2023-02-18T06:48:29;95817.34;;;3.81;92.23
15477;BME280;7840;42.702;23.296;2023-02-18T06:51:00;95812.13;;;4.03;93.56
15477;BME280;7840;42.702;23.296;2023-02-18T06:53:49;95791.28;;;4.44;91.60
15477;BME280;7840;42.702;23.296;2023-02-18T06:56:28;95797.34;;;4.73;86.97
15477;BME280;7840;42.702;23.296;2023-02-18T06:59:01;95808.59;;;4.94;85.41
15477;BME280;7840;42.702;23.296;2023-02-18T07:01:30;95803.81;;;5.05;83.99
15477;BME280;7840;42.702;23.296;2023-02-18T07:04:08;95810.91;;;5.11;82.30
15477;BME280;7840;42.702;23.296;2023-02-18T07:06:35;95799.72;;;5.37;80.61
15477;BME280;7840;42.702;23.296;2023-02-18T07:09:05;95801.00;;;5.54;79.73
15477;BME280;7840;42.702;23.296;2023-02-18T07:11:35;95802.06;;;5.73;78.04
15477;BME280;7840;42.702;23.296;2023-02-18T07:14:05;95789.56;;;5.88;76.55
15477;BME280;7840;42.702;23.296;2023-02-18T07:16:49;95799.91;;;5.96;75.61
15477;BME280;7840;42.702;23.296;2023-02-18T07:19:20;95803.78;;;6.07;74.97
15477;BME280;7840;42.702;23.296;2023-02-18T07:21:59;95787.44;;;6.12;74.09
15477;BME280;7840;42.702;23.296;2023-02-18T07:24:29;95786.59;;;6.24;74.57
15477;BME280;7840;42.702;23.296;2023-02-18T07:27:04;95778.94;;;6.36;73.55
15477;BME280;7840;42.702;23.296;2023-02-18T07:29:34;95787.03;;;6.54;71.70
15477;BME280;7840;42.702;23.296;2023-02-18T07:32:05;95795.34;;;6.32;71.51
15477;BME280;7840;42.702;23.296;2023-02-18T07:34:53;95800.94;;;6.02;72.48
15477;BME280;7840;42.702;23.296;2023-02-18T07:37:21;95784.94;;;5.97;74.29
15477;BME280;7840;42.702;23.296;2023-02-18T07:39:50;95801.56;;;6.24;73.94
15477;BME280;7840;42.702;23.296;2023-02-18T07:42:18;95795.53;;;6.56;72.19
15477;BME280;7840;42.702;23.296;2023-02-18T07:44:45;95807.88;;;6.76;70.67
15477;BME280;7840;42.702;23.296;2023-02-18T07:47:15;95802.56;;;6.96;70.02
15477;BME280;7840;42.702;23.296;2023-02-18T07:49:45;95798.69;;;7.11;68.50
15477;BME280;7840;42.702;23.296;2023-02-18T07:52:13;95807.53;;;7.37;67.81
15477;BME280;7840;42.702;23.296;2023-02-18T07:54:40;95810.72;;;7.52;66.94
15477;BME280;7840;42.702;23.296;2023-02-18T07:57:09;95801.69;;;7.73;66.16
15477;BME280;7840;42.702;23.296;2023-02-18T07:59:37;95808.47;;;7.94;65.29
15477;BME280;7840;42.702;23.296;2023-02-18T08:02:05;95797.34;;;7.92;64.12
15477;BME280;7840;42.702;23.296;2023-02-18T08:04:51;95800.47;;;7.76;64.50
15477;BME280;7840;42.702;23.296;2023-02-18T08:07:21;95805.13;;;7.74;64.53
15477;BME280;7840;42.702;23.296;2023-02-18T08:09:49;95802.94;;;7.71;65.30
15477;BME280;7840;42.702;23.296;2023-02-18T08:12:18;95803.28;;;7.81;65.59
15477;BME280;7840;42.702;23.296;2023-02-18T08:14:45;95793.06;;;7.98;65.28
15477;BME280;7840;42.702;23.296;2023-02-18T08:17:13;95787.66;;;8.17;64.04
15477;BME280;7840;42.702;23.296;2023-02-18T08:19:47;95783.91;;;8.32;62.48
15477;BME280;7840;42.702;23.296;2023-02-18T08:22:30;95780.56;;;8.43;62.67
15477;BME280;7840;42.702;23.296;2023-02-18T08:25:06;95772.09;;;8.34;62.39
15477;BME280;7840;42.702;23.296;2023-02-18T08:27:35;95763.56;;;8.39;62.90
15477;BME280;7840;42.702;23.296;2023-02-18T08:30:06;95770.88;;;8.62;62.07
15477;BME280;7840;42.702;23.296;2023-02-18T08:32:36;95777.19;;;8.61;61.91
15477;BME280;7840;42.702;23.296;2023-02-18T08:35:19;95773.00;;;8.71;61.70
15477;BME280;7840;42.702;23.296;2023-02-18T08:37:48;95765.59;;;8.87;61.25
15477;BME280;7840;42.702;23.296;2023-02-18T08:40:16;95757.56;;;9.12;61.27
15477;BME280;7840;42.702;23.296;2023-02-18T08:42:45;95768.59;;;9.45;59.96
15477;BME280;7840;42.702;23.296;2023-02-18T08:45:12;95760.88;;;9.62;57.92
15477;BME280;7840;42.702;23.296;2023-02-18T08:47:40;95756.88;;;9.53;58.39
15477;BME280;7840;42.702;23.296;2023-02-18T08:50:08;95771.72;;;9.72;58.01
15477;BME280;7840;42.702;23.296;2023-02-18T08:52:36;95769.97;;;9.96;57.59
15477;BME280;7840;42.702;23.296;2023-02-18T08:55:04;95764.41;;;10.16;55.53
15477;BME280;7840;42.702;23.296;2023-02-18T08:57:32;95776.28;;;10.25;54.08
15477;BME280;7840;42.702;23.296;2023-02-18T09:00:01;95774.47;;;10.07;54.12
15477;BME280;7840;42.702;23.296;2023-02-18T09:02:34;95769.78;;;10.21;54.15
15477;BME280;7840;42.702;23.296;2023-02-18T09:05:05;95764.84;;;10.13;53.31
15477;BME280;7840;42.702;23.296;2023-02-18T09:07:34;95772.53;;;10.14;53.02
15477;BME280;7840;42.702;23.296;2023-02-18T09:10:03;95776.22;;;10.13;53.47
15477;BME280;7840;42.702;23.296;2023-02-18T09:12:34;95774.78;;;10.29;53.25
15477;BME280;7840;42.702;23.296;2023-02-18T09:15:15;95766.34;;;10.51;52.29
15477;BME280;7840;42.702;23.296;2023-02-18T09:17:45;95769.28;;;10.43;52.82
15477;BME280;7840;42.702;23.296;2023-02-18T09:20:17;95768.66;;;10.59;51.95
15477;BME280;7840;42.702;23.296;2023-02-18T09:22:59;95766.13;;;10.64;52.90
15477;BME280;7840;42.702;23.296;2023-02-18T09:25:29;95760.56;;;11.01;51.18
15477;BME280;7840;42.702;23.296;2023-02-18T09:28:19;95751.28;;;11.38;49.81
15477;BME280;7840;42.702;23.296;2023-02-18T09:31:28;95745.75;;;12.09;48.20
15477;BME280;7840;42.702;23.296;2023-02-18T09:34:05;95749.00;;;12.61;46.50
15477;BME280;7840;42.702;23.296;2023-02-18T09:36:33;95737.88;;;12.98;45.71
15477;BME280;7840;42.702;23.296;2023-02-18T09:41:47;95736.22;;;13.13;44.40
15477;BME280;7840;42.702;23.296;2023-02-18T09:44:20;95741.06;;;12.83;44.62
15477;BME280;7840;42.702;23.296;2023-02-18T09:47:05;95741.59;;;12.80;44.86
15477;BME280;7840;42.702;23.296;2023-02-18T09:49:40;95731.78;;;13.41;43.75
15477;BME280;7840;42.702;23.296;2023-02-18T09:52:13;95737.81;;;13.31;43.51
15477;BME280;7840;42.702;23.296;2023-02-18T09:54:44;95735.00;;;13.43;43.21
15477;BME280;7840;42.702;23.296;2023-02-18T09:57:22;95729.16;;;13.90;42.22
15477;BME280;7840;42.702;23.296;2023-02-18T10:00:04;95725.16;;;14.19;41.30
15477;BME280;7840;42.702;23.296;2023-02-18T10:02:38;95718.88;;;14.31;39.96
15477;BME280;7840;42.702;23.296;2023-02-18T10:05:32;95710.94;;;14.36;40.03
15477;BME280;7840;42.702;23.296;2023-02-18T10:08:03;95709.16;;;14.84;39.28
15477;BME280;7840;42.702;23.296;2023-02-18T10:10:43;95706.09;;;15.07;37.17
15477;BME280;7840;42.702;23.296;2023-02-18T10:13:27;95700.38;;;14.46;37.68
15477;BME280;7840;42.702;23.296;2023-02-18T10:15:55;95701.31;;;14.67;37.48
15477;BME280;7840;42.702;23.296;2023-02-18T10:18:28;95689.97;;;14.87;37.19
15477;BME280;7840;42.702;23.296;2023-02-18T10:21:01;95700.34;;;15.30;36.66
15477;BME280;7840;42.702;23.296;2023-02-18T10:23:59;95686.41;;;15.86;35.10
15477;BME280;7840;42.702;23.296;2023-02-18T10:26:30;95680.28;;;16.62;34.04
15477;BME280;7840;42.702;23.296;2023-02-18T10:29:10;95683.38;;;17.20;33.16
15477;BME280;7840;42.702;23.296;2023-02-18T10:31:44;95670.13;;;16.23;33.94
15477;BME280;7840;42.702;23.296;2023-02-18T10:34:38;95682.44;;;15.26;34.39
15477;BME280;7840;42.702;23.296;2023-02-18T10:40:04;95664.91;;;14.88;35.30
15477;BME280;7840;42.702;23.296;2023-02-18T10:42:44;95674.69;;;14.72;35.16
15477;BME280;7840;42.702;23.296;2023-02-18T10:45:30;95663.84;;;14.84;35.34
15477;BME280;7840;42.702;23.296;2023-02-18T10:51:00;95637.22;;;15.72;33.78
15477;BME280;7840;42.702;23.296;2023-02-18T10:53:33;95639.66;;;16.29;33.63
15477;BME280;7840;42.702;23.296;2023-02-18T10:59:17;95640.47;;;16.14;33.94
15477;BME280;7840;42.702;23.296;2023-02-18T11:01:46;95642.31;;;16.19;32.97
15477;BME280;7840;42.702;23.296;2023-02-18T11:04:26;95628.16;;;15.93;33.24
15477;BME280;7840;42.702;23.296;2023-02-18T11:07:07;95646.59;;;15.79;33.36
15477;BME280;7840;42.702;23.296;2023-02-18T11:09:48;95633.09;;;15.44;33.36
15477;BME280;7840;42.702;23.296;2023-02-18T11:12:43;95633.59;;;15.25;33.86
15477;BME280;7840;42.702;23.296;2023-02-18T11:15:18;95652.06;;;14.80;34.58
15477;BME280;7840;42.702;23.296;2023-02-18T11:17:47;95630.69;;;14.69;34.95
15477;BME280;7840;42.702;23.296;2023-02-18T11:20:29;95634.31;;;14.53;35.19
15477;BME280;7840;42.702;23.296;2023-02-18T11:25:55;95610.56;;;14.52;35.60
15477;BME280;7840;42.702;23.296;2023-02-18T11:28:34;95611.41;;;14.57;35.62
15477;BME280;7840;42.702;23.296;2023-02-18T11:31:04;95600.78;;;14.67;35.68
15477;BME280;7840;42.702;23.296;2023-02-18T11:33:34;95611.34;;;14.47;36.02
15477;BME280;7840;42.702;23.296;2023-02-18T11:36:09;95606.09;;;14.57;36.11
15477;BME280;7840;42.702;23.296;2023-02-18T11:39:18;95581.13;;;14.78;35.72
15477;BME280;7840;42.702;23.296;2023-02-18T11:41:52;95576.38;;;14.91;35.85
15477;BME280;7840;42.702;23.296;2023-02-18T11:45:00;95573.25;;;15.14;35.84
15477;BME280;7840;42.702;23.296;2023-02-18T11:48:07;95576.53;;;15.52;35.00
15477;BME280;7840;42.702;23.296;2023-02-18T11:50:35;95560.03;;;15.70;35.02
15477;BME280;7840;42.702;23.296;2023-02-18T11:53:26;95577.66;;;15.71;35.01
15477;BME280;7840;42.702;23.296;2023-02-18T11:55:57;95565.13;;;15.87;34.83
15477;BME280;7840;42.702;23.296;2023-02-18T11:58:36;95561.34;;;15.98;34.46
15477;BME280;7840;42.702;23.296;2023-02-18T12:01:13;95556.22;;;16.32;34.26
15477;BME280;7840;42.702;23.296;2023-02-18T12:03:47;95545.28;;;16.29;34.34
15477;BME280;7840;42.702;23.296;2023-02-18T12:06:22;95539.69;;;16.15;34.45
15477;BME280;7840;42.702;23.296;2023-02-18T12:09:06;95540.78;;;16.04;35.07
15477;BME280;7840;42.702;23.296;2023-02-18T12:11:41;95536.53;;;15.82;35.21
15477;BME280;7840;42.702;23.296;2023-02-18T12:14:15;95538.13;;;15.63;35.18
15477;BME280;7840;42.702;23.296;2023-02-18T12:16:56;95538.16;;;15.78;35.25
15477;BME280;7840;42.702;23.296;2023-02-18T12:19:49;95533.31;;;16.01;35.63
15477;BME280;7840;42.702;23.296;2023-02-18T12:22:25;95535.47;;;15.73;35.41
15477;BME280;7840;42.702;23.296;2023-02-18T12:25:08;95533.34;;;15.85;35.87
15477;BME280;7840;42.702;23.296;2023-02-18T12:27:48;95532.00;;;15.93;36.69
15477;BME280;7840;42.702;23.296;2023-02-18T12:30:36;95527.69;;;16.07;35.18
15477;BME280;7840;42.702;23.296;2023-02-18T12:33:15;95517.75;;;16.28;35.36
15477;BME280;7840;42.702;23.296;2023-02-18T12:35:55;95516.22;;;16.07;35.67
15477;BME280;7840;42.702;23.296;2023-02-18T12:38:57;95490.53;;;16.11;35.82
15477;BME280;7840;42.702;23.296;2023-02-18T12:41:50;95493.38;;;16.40;35.37
15477;BME280;7840;42.702;23.296;2023-02-18T12:44:37;95493.59;;;16.59;34.95
15477;BME280;7840;42.702;23.296;2023-02-18T12:47:38;95486.75;;;16.27;34.69
15477;BME280;7840;42.702;23.296;2023-02-18T12:50:30;95492.06;;;16.32;34.59
15477;BME280;7840;42.702;23.296;2023-02-18T12:53:24;95479.72;;;16.52;34.31
15477;BME280;7840;42.702;23.296;2023-02-18T12:56:33;95477.97;;;16.91;34.22
15477;BME280;7840;42.702;23.296;2023-02-18T12:59:12;95481.22;;;16.83;34.25
15477;BME280;7840;42.702;23.296;2023-02-18T13:02:07;95482.81;;;16.79;34.21
15477;BME280;7840;42.702;23.296;2023-02-18T13:04:51;95473.56;;;17.11;34.13
15477;BME280;7840;42.702;23.296;2023-02-18T13:10:20;95484.28;;;17.06;34.13
15477;BME280;7840;42.702;23.296;2023-02-18T13:12:54;95488.94;;;17.29;33.60
15477;BME280;7840;42.702;23.296;2023-02-18T13:15:37;95490.56;;;17.30;33.55
15477;BME280;7840;42.702;23.296;2023-02-18T13:18:37;95489.13;;;17.09;34.60
15477;BME280;7840;42.702;23.296;2023-02-18T13:21:21;95484.91;;;16.87;36.07
15477;BME280;7840;42.702;23.296;2023-02-18T13:24:26;95495.44;;;16.68;36.17
15477;BME280;7840;42.702;23.296;2023-02-18T13:27:04;95487.22;;;16.45;36.98
15477;BME280;7840;42.702;23.296;2023-02-18T13:29:46;95493.22;;;16.01;37.79
15477;BME280;7840;42.702;23.296;2023-02-18T13:32:39;95492.69;;;15.99;38.06
15477;BME280;7840;42.702;23.296;2023-02-18T13:35:18;95489.25;;;15.88;38.13
15477;BME280;7840;42.702;23.296;2023-02-18T13:37:58;95490.03;;;15.94;38.17
15477;BME280;7840;42.702;23.296;2023-02-18T13:40:33;95485.00;;;15.72;38.60
15477;BME280;7840;42.702;23.296;2023-02-18T13:43:19;95490.31;;;15.67;38.83
15477;BME280;7840;42.702;23.296;2023-02-18T13:46:09;95496.47;;;15.67;38.60
15477;BME280;7840;42.702;23.296;2023-02-18T13:48:52;95494.03;;;15.40;38.98
15477;BME280;7840;42.702;23.296;2023-02-18T14:02:07;95479.31;;;15.12;39.43
15477;BME280;7840;42.702;23.296;2023-02-18T14:05:18;95484.13;;;15.05;39.44
15477;BME280;7840;42.702;23.296;2023-02-18T14:39:59;95487.88;;;15.55;39.40
15477;BME280;7840;42.702;23.296;2023-02-18T14:42:36;95489.47;;;15.36;39.26
15477;BME280;7840;42.702;23.296;2023-02-18T14:45:21;95477.22;;;15.45;39.26
15477;BME280;7840;42.702;23.296;2023-02-18T14:48:27;95490.56;;;15.45;39.50
15477;BME280;7840;42.702;23.296;2023-02-18T14:51:01;95474.25;;;15.56;39.15
15477;BME280;7840;42.702;23.296;2023-02-18T14:53:29;95471.13;;;15.65;39.33
15477;BME280;7840;42.702;23.296;2023-02-18T14:56:01;95472.44;;;15.62;39.14
15477;BME280;7840;42.702;23.296;2023-02-18T14:58:32;95488.16;;;15.38;39.57
15477;BME280;7840;42.702;23.296;2023-02-18T15:01:06;95471.88;;;15.55;39.51
15477;BME280;7840;42.702;23.296;2023-02-18T15:03:38;95471.88;;;15.45;39.55
15477;BME280;7840;42.702;23.296;2023-02-18T15:06:24;95475.06;;;15.26;39.91
15477;BME280;7840;42.702;23.296;2023-02-18T15:08:52;95480.38;;;15.16;40.00